MST,Max TemperatureF,Mean TemperatureF,Min TemperatureF,Max Dew PointF,MeanDew PointF,Min DewpointF,Max Humidity, Mean Humidity, Min Humidity, Max Sea Level PressureIn, Mean Sea Level PressureIn, Min Sea Level PressureIn, Max VisibilityMiles, Mean VisibilityMiles, Min VisibilityMiles, Max Wind SpeedMPH, Mean Wind SpeedMPH, Max Gust SpeedMPH,PrecipitationIn, CloudCover, Events, WindDirDegrees
2013-7-1,96,82,69,61,52,39,69,38,14,30.16,29.95,29.81,10,10,10,17,7,24,0.00,6,Rain-Thunderstorm,16
2013-7-2,91,78,66,61,54,46,83,48,21,30.24,30.03,29.87,10,10,7,23,11,38,0.01,7,Rain-Thunderstorm,56
2013-7-3,93,81,69,61,51,45,70,37,20,30.09,29.90,29.76,10,10,8,24,11,32,0.01,6,Rain-Thunderstorm,163
2013-7-4,96,82,68,59,52,44,73,37,18,30.06,29.85,29.73,10,10,6,22,10,32,0.01,2,Rain,300
2013-7-5,91,78,66,66,60,54,88,63,28,30.11,29.91,29.81,10,9,0,30,7,54,0.38,7,Rain-Thunderstorm,260
2013-7-6,93,80,66,64,58,54,84,46,26,29.96,29.84,29.74,10,10,10,16,5,,0.00,1,Rain-Thunderstorm,273
2013-7-7,93,82,71,64,58,47,78,48,20,30.06,29.88,29.77,10,9,2,23,9,31,0.15,2,Rain-Thunderstorm,227
2013-7-8,93,82,71,64,59,48,78,52,21,30.15,29.98,29.86,10,10,10,14,5,23,0.01,6,Rain-Thunderstorm,155
2013-7-9,89,76,62,66,61,55,94,68,31,30.26,30.08,29.93,10,9,1,54,12,82,0.88,7,Rain-Thunderstorm,94
2013-7-10,86,76,66,67,63,61,94,69,45,30.19,30.02,29.91,10,10,6,22,6,,0.03,5,Rain-Thunderstorm,248
2013-7-11,84,75,66,66,63,61,94,70,45,30.19,29.99,29.90,10,10,10,20,7,25,0.01,5,Rain-Thunderstorm,269
2013-7-12,87,76,66,66,61,55,88,61,35,30.17,29.96,29.85,10,10,10,15,6,25,0.04,4,Rain-Thunderstorm,209
2013-7-13,89,79,69,63,59,53,73,53,30,30.14,29.96,29.85,10,10,9,26,8,36,0.04,2,Rain-Thunderstorm,239
2013-7-14,91,78,66,64,58,54,90,49,30,30.06,29.91,29.84,10,10,10,20,6,24,0.00,1,Thunderstorm,268
2013-7-15,89,78,68,63,58,53,83,52,31,30.13,29.93,29.78,10,10,10,24,12,30,0.00,6,Rain-Thunderstorm,223
2013-7-16,78,71,64,66,63,59,100,84,54,30.21,30.09,29.93,10,7,1,13,7,18,0.63,8,Rain-Thunderstorm,124
2013-7-17,84,75,66,64,58,51,94,62,33,30.24,30.05,29.94,10,10,10,15,5,,0.00,5,,109
2013-7-18,82,74,66,61,57,54,78,56,41,30.12,29.98,29.90,10,10,10,21,8,20,0.00,4,,98
2013-7-19,75,70,66,65,62,59,88,72,62,30.14,29.97,29.87,10,9,3,13,5,,0.01,6,Rain,120
2013-7-20,79,74,68,64,62,59,84,70,52,30.03,29.88,29.82,10,10,10,23,6,29,0.00,5,,284
2013-7-21,82,74,66,64,62,57,88,69,44,30.12,29.97,29.87,10,9,2,14,4,20,0.08,5,Rain,281
2013-7-22,84,75,66,61,59,57,73,57,40,30.14,29.98,29.93,10,10,10,23,8,29,0.00,6,Rain-Thunderstorm,261
2013-7-23,87,78,69,63,60,55,73,57,33,30.17,29.97,29.88,10,10,10,17,10,28,0.00,5,Thunderstorm,280
2013-7-24,82,75,68,65,63,58,83,69,47,30.18,29.99,29.90,10,10,10,15,7,,0.09,6,Rain,286
2013-7-25,84,76,69,65,63,61,83,64,45,30.21,30.06,29.95,10,10,10,17,5,23,0.00,5,Rain-Thunderstorm,114
2013-7-26,89,79,69,69,63,57,91,65,33,30.26,30.12,30.03,10,10,6,20,5,20,0.00,5,Rain-Thunderstorm,278
2013-7-27,82,75,68,65,62,57,84,65,49,30.17,30.01,29.92,10,10,10,16,4,,0.01,0,Rain-Thunderstorm,206
2013-7-28,90,80,69,61,55,48,71,44,26,29.93,29.89,29.83,10,10,10,17,6,26,0.00,1,,242
2013-7-29,89,78,68,57,52,46,64,40,22,30.04,29.97,29.89,10,10,10,12,6,16,0.00,4,,279
2013-7-30,88,78,69,55,52,46,60,40,25,30.13,30.07,30.03,10,10,10,12,6,,0.00,5,,276
2013-7-31,88,80,73,61,55,50,65,41,29,30.28,30.08,29.97,10,10,10,20,7,20,0.00,5,Rain-Thunderstorm,238